createdAt,value
2022-10-14T00:05:03.598Z,1013.53
2022-10-14T00:20:04.678Z,1013.41
2022-10-14T00:35:04.701Z,1013.47
2022-10-14T00:50:04.824Z,1013.47
2022-10-14T01:05:04.556Z,1013.41
2022-10-14T01:20:05.388Z,1013.23
2022-10-14T01:35:06.335Z,1013.21
2022-10-14T01:50:08.278Z,1013.20
2022-10-14T02:05:09.252Z,1013.11
2022-10-14T02:20:10.650Z,1013.17
2022-10-14T02:35:11.151Z,1013.13
2022-10-14T02:50:12.267Z,1013.18
2022-10-14T03:05:13.582Z,1012.97
2022-10-14T03:20:14.957Z,1012.98
2022-10-14T03:35:16.322Z,1012.82
2022-10-14T03:50:17.189Z,1012.81
2022-10-14T04:05:17.544Z,1012.81
2022-10-14T04:20:17.650Z,1012.76
2022-10-14T04:35:18.267Z,1012.55
2022-10-14T04:50:18.441Z,1012.59
2022-10-14T05:05:18.522Z,1012.55
2022-10-14T05:20:18.643Z,1012.43
2022-10-14T05:35:29.258Z,1012.38
2022-10-14T05:50:23.872Z,1012.40
2022-10-14T06:05:23.963Z,1012.32
2022-10-14T06:20:24.091Z,1012.42
2022-10-14T06:35:24.166Z,1012.51
2022-10-14T06:50:24.317Z,1012.52
2022-10-14T07:05:24.383Z,1012.70
2022-10-14T07:20:24.577Z,1012.78
2022-10-14T07:35:24.696Z,1012.73
2022-10-14T07:50:24.827Z,1012.65
2022-10-14T08:05:37.653Z,1012.68
2022-10-14T08:20:30.706Z,1012.71
2022-10-14T08:35:31.640Z,1012.59
2022-10-14T08:50:31.311Z,1012.55
2022-10-14T09:05:31.412Z,1012.46
2022-10-14T09:20:32.791Z,1012.38
2022-10-14T09:35:32.958Z,1012.36
2022-10-14T09:50:34.374Z,1012.34
2022-10-14T10:05:34.875Z,1012.16
2022-10-14T10:20:35.860Z,1012.08
2022-10-14T10:35:37.173Z,1011.97
2022-10-14T10:50:38.610Z,1012.03
2022-10-14T11:05:38.667Z,1011.84
2022-10-14T11:20:38.868Z,1011.79
2022-10-14T11:35:39.551Z,1011.61
2022-10-14T11:50:41.926Z,1011.39
2022-10-14T12:05:44.563Z,1011.33
2022-10-14T12:20:44.693Z,1011.25
2022-10-14T12:35:46.056Z,1011.15
2022-10-14T12:50:47.968Z,1011.03
2022-10-14T13:05:50.268Z,1010.71
2022-10-14T13:20:50.424Z,1010.74
2022-10-14T13:35:51.000Z,1010.59
2022-10-14T13:50:51.212Z,1010.52
2022-10-14T14:05:51.179Z,1010.59
2022-10-14T14:20:51.395Z,1010.49
2022-10-14T14:35:51.415Z,1010.36
2022-10-14T14:50:52.041Z,1010.30
2022-10-14T15:05:52.170Z,1009.94
2022-10-14T15:20:52.747Z,1009.85
2022-10-14T15:35:53.295Z,1009.75
2022-10-14T15:50:53.411Z,1009.75
2022-10-14T16:05:53.684Z,1009.67
2022-10-14T16:20:53.694Z,1009.57
2022-10-14T16:35:55.039Z,1009.56
2022-10-14T16:50:55.665Z,1009.49
2022-10-14T17:05:56.265Z,1009.40
2022-10-14T17:20:56.834Z,1009.34
2022-10-14T17:35:57.946Z,1009.25
2022-10-14T17:50:57.537Z,1009.33
2022-10-14T18:05:58.142Z,1009.20
2022-10-14T18:20:58.263Z,1008.93
2022-10-14T18:35:58.863Z,1008.99
2022-10-14T18:51:00.716Z,1008.81
2022-10-14T19:06:03.622Z,1008.69
2022-10-14T19:21:04.949Z,1008.62
2022-10-14T19:36:05.549Z,1008.46
2022-10-14T19:51:07.267Z,1008.34
2022-10-14T20:06:08.035Z,1008.09
2022-10-14T20:21:08.903Z,1007.99
2022-10-14T20:36:09.028Z,1007.90
2022-10-14T20:51:09.118Z,1007.90
2022-10-14T21:06:10.205Z,1007.60
2022-10-14T21:21:11.643Z,1007.36
2022-10-14T21:36:14.949Z,1007.21
2022-10-14T21:51:15.551Z,1007.16
2022-10-14T22:06:16.959Z,1006.97
2022-10-14T22:21:18.898Z,1006.68
2022-10-14T22:36:23.581Z,1006.49
2022-10-14T22:51:24.527Z,1006.30
2022-10-14T23:06:25.025Z,1006.20
2022-10-14T23:21:24.654Z,1006.13
2022-10-14T23:36:25.214Z,1006.15
2022-10-14T23:51:24.824Z,1006.08
